createdAt,value
2023-03-26T00:00:56.628Z,8.913879
2023-03-26T00:02:05.519Z,8.893738
2023-03-26T00:03:15.245Z,8.893738
2023-03-26T00:04:24.955Z,8.944092
2023-03-26T00:05:33.643Z,8.944092
2023-03-26T00:06:42.431Z,8.954163
2023-03-26T00:07:52.107Z,8.954163
2023-03-26T00:09:00.825Z,8.994446
2023-03-26T00:10:10.494Z,8.994446
2023-03-26T00:11:20.242Z,9.004517
2023-03-26T00:12:28.942Z,9.004517
2023-03-26T00:13:38.677Z,9.004517
2023-03-26T00:14:48.478Z,9.024658
2023-03-26T00:15:58.161Z,8.994446
2023-03-26T00:17:07.879Z,9.004517
2023-03-26T00:18:15.638Z,9.024658
2023-03-26T00:19:25.314Z,8.974304
2023-03-26T00:20:35.015Z,8.974304
2023-03-26T00:21:43.720Z,8.92395
2023-03-26T00:22:53.454Z,8.913879
2023-03-26T00:24:03.133Z,8.873596
2023-03-26T00:25:11.794Z,8.853455
2023-03-26T00:26:21.488Z,8.873596
2023-03-26T00:27:30.175Z,8.843384
2023-03-26T00:28:39.882Z,8.813171
2023-03-26T00:29:48.578Z,8.762817
2023-03-26T00:30:57.339Z,8.762817
2023-03-26T00:32:07.001Z,8.782959
2023-03-26T00:33:15.720Z,8.782959
2023-03-26T00:34:24.418Z,8.762817
2023-03-26T00:35:34.168Z,8.762817
2023-03-26T00:36:42.900Z,8.742676
2023-03-26T00:37:52.641Z,8.742676
2023-03-26T00:39:01.366Z,8.79303
2023-03-26T00:40:11.063Z,8.782959
2023-03-26T00:41:20.695Z,8.762817
2023-03-26T00:42:29.440Z,8.782959
2023-03-26T00:43:39.100Z,8.813171
2023-03-26T00:44:48.941Z,8.79303
2023-03-26T00:45:58.697Z,8.813171
2023-03-26T00:47:08.391Z,8.813171
2023-03-26T00:48:17.090Z,8.813171
2023-03-26T00:49:27.770Z,8.79303
2023-03-26T00:50:37.480Z,8.762817
2023-03-26T00:51:46.244Z,8.712463
2023-03-26T00:52:55.938Z,8.702393
2023-03-26T00:54:05.703Z,8.692322
2023-03-26T00:55:15.403Z,8.662109
2023-03-26T00:56:25.160Z,8.692322
2023-03-26T00:57:35.686Z,8.692322
2023-03-26T00:58:42.590Z,8.692322
2023-03-26T00:59:52.301Z,8.702393
2023-03-26T01:01:01.059Z,8.702393
2023-03-26T01:02:09.755Z,8.702393
2023-03-26T01:03:25.352Z,8.732605
2023-03-26T01:04:31.157Z,8.732605
2023-03-26T01:05:40.233Z,8.702393
2023-03-26T01:06:49.921Z,8.662109
2023-03-26T01:07:57.640Z,8.662109
2023-03-26T01:09:07.362Z,8.67218
2023-03-26T01:10:17.074Z,8.67218
2023-03-26T01:11:25.758Z,8.641968
2023-03-26T01:12:35.493Z,8.631897
2023-03-26T01:13:44.197Z,8.641968
2023-03-26T01:14:53.892Z,8.631897
2023-03-26T01:16:03.615Z,8.67218
2023-03-26T01:17:13.257Z,8.662109
2023-03-26T01:18:22.985Z,8.67218
2023-03-26T01:19:31.704Z,8.631897
2023-03-26T01:20:40.376Z,8.611755
2023-03-26T01:21:50.054Z,8.561401
2023-03-26T01:22:58.759Z,8.581543
2023-03-26T01:24:07.440Z,8.551331
2023-03-26T01:25:17.180Z,8.531189
2023-03-26T01:26:24.859Z,8.531189
2023-03-26T01:27:34.592Z,8.531189
2023-03-26T01:28:43.285Z,8.511047
2023-03-26T01:29:52.957Z,8.460693
2023-03-26T01:31:02.655Z,8.460693
2023-03-26T01:32:12.411Z,8.450623
2023-03-26T01:33:22.133Z,8.440552
2023-03-26T01:34:30.716Z,8.440552
2023-03-26T01:35:39.461Z,8.440552
2023-03-26T01:36:49.090Z,8.380127
2023-03-26T01:37:58.913Z,8.370056
2023-03-26T01:39:07.521Z,8.339844
2023-03-26T01:40:17.236Z,8.309631
2023-03-26T01:41:24.972Z,8.269348
2023-03-26T01:42:34.678Z,8.269348
2023-03-26T01:43:44.373Z,8.259277
2023-03-26T01:44:52.091Z,8.239136
2023-03-26T01:46:01.833Z,8.198853
2023-03-26T01:47:10.529Z,8.229065
2023-03-26T01:48:20.298Z,8.198853
2023-03-26T01:49:30.008Z,8.188782
2023-03-26T01:50:38.674Z,8.158569
2023-03-26T01:51:48.369Z,8.158569
2023-03-26T01:52:57.179Z,8.178711
2023-03-26T01:54:04.949Z,8.178711
2023-03-26T01:55:14.902Z,8.198853
2023-03-26T01:56:23.597Z,8.188782
2023-03-26T01:57:33.294Z,8.178711
2023-03-26T01:58:43.138Z,8.148499
2023-03-26T01:59:51.889Z,8.148499
2023-03-26T02:01:01.623Z,8.118286
2023-03-26T02:02:10.371Z,8.098145
2023-03-26T02:03:18.563Z,8.088074
2023-03-26T02:04:27.828Z,8.088074
2023-03-26T02:05:37.498Z,8.098145
2023-03-26T02:06:47.269Z,8.088074
2023-03-26T02:07:56.984Z,8.057861
2023-03-26T02:09:05.711Z,8.047791
2023-03-26T02:10:15.413Z,8.047791
2023-03-26T02:11:33.618Z,7.997437
2023-03-26T02:12:35.779Z,7.997437
2023-03-26T02:13:45.618Z,7.977295
2023-03-26T02:14:55.271Z,7.967224
2023-03-26T02:16:03.959Z,7.997437
2023-03-26T02:17:13.673Z,8.007507
2023-03-26T02:18:23.403Z,8.027649
2023-03-26T02:19:31.100Z,8.007507
2023-03-26T02:20:40.774Z,7.997437
2023-03-26T02:21:48.457Z,7.977295
2023-03-26T02:22:57.206Z,7.977295
2023-03-26T02:24:05.952Z,7.967224
2023-03-26T02:25:13.641Z,7.977295
2023-03-26T02:26:22.370Z,7.977295
2023-03-26T02:27:31.071Z,7.997437
2023-03-26T02:28:39.803Z,8.007507
2023-03-26T02:29:49.491Z,8.027649
2023-03-26T02:30:58.180Z,8.057861
2023-03-26T02:32:07.896Z,8.078003
2023-03-26T02:33:18.620Z,8.047791
2023-03-26T02:34:27.315Z,8.047791
2023-03-26T02:35:37.144Z,8.057861
2023-03-26T02:36:46.773Z,8.078003
2023-03-26T02:37:55.471Z,8.078003
2023-03-26T02:39:05.211Z,8.128357
2023-03-26T02:40:13.908Z,8.118286
2023-03-26T02:41:22.632Z,8.158569
2023-03-26T02:42:32.323Z,8.188782
2023-03-26T02:43:42.056Z,8.188782
2023-03-26T02:44:51.891Z,8.178711
2023-03-26T02:46:01.601Z,8.198853
2023-03-26T02:47:10.282Z,8.198853
2023-03-26T02:48:19.985Z,8.229065
2023-03-26T02:49:28.696Z,8.198853
2023-03-26T02:50:37.464Z,8.239136
2023-03-26T02:51:47.197Z,8.239136
2023-03-26T02:52:55.883Z,8.239136
2023-03-26T02:54:05.584Z,8.229065
2023-03-26T02:55:15.282Z,8.229065
2023-03-26T02:56:22.941Z,8.198853
2023-03-26T02:57:32.636Z,8.198853
2023-03-26T02:58:42.310Z,8.158569
2023-03-26T02:59:52.013Z,8.158569
2023-03-26T03:01:01.766Z,8.188782
2023-03-26T03:02:10.388Z,8.188782
2023-03-26T03:03:20.057Z,8.188782
2023-03-26T03:04:28.762Z,8.188782
2023-03-26T03:05:38.465Z,8.178711
2023-03-26T03:06:48.205Z,8.188782
2023-03-26T03:07:56.919Z,8.178711
2023-03-26T03:09:06.581Z,8.158569
2023-03-26T03:10:16.284Z,8.158569
2023-03-26T03:11:25.159Z,8.148499
2023-03-26T03:12:34.642Z,8.148499
2023-03-26T03:13:44.329Z,8.128357
2023-03-26T03:14:52.047Z,8.118286
2023-03-26T03:16:01.782Z,8.158569
2023-03-26T03:17:10.470Z,8.128357
2023-03-26T03:18:19.165Z,8.158569
2023-03-26T03:19:28.925Z,8.158569
2023-03-26T03:20:37.622Z,8.178711
2023-03-26T03:21:46.302Z,8.178711
2023-03-26T03:22:55.015Z,8.188782
2023-03-26T03:24:04.769Z,8.188782
2023-03-26T03:25:14.479Z,8.239136
2023-03-26T03:26:22.151Z,8.198853
2023-03-26T03:27:31.903Z,8.188782
2023-03-26T03:28:41.567Z,8.178711
2023-03-26T03:29:50.275Z,8.158569
2023-03-26T03:31:00.010Z,8.178711
2023-03-26T03:32:09.661Z,8.178711
2023-03-26T03:33:17.398Z,8.158569
2023-03-26T03:34:27.114Z,8.158569
2023-03-26T03:35:34.807Z,8.148499
2023-03-26T03:36:43.508Z,8.118286
2023-03-26T03:37:53.218Z,8.128357
2023-03-26T03:39:01.959Z,8.148499
2023-03-26T03:40:11.681Z,8.128357
2023-03-26T03:41:21.428Z,8.118286
2023-03-26T03:42:30.158Z,8.118286
2023-03-26T03:43:39.885Z,8.098145
2023-03-26T03:44:48.626Z,8.098145
2023-03-26T03:45:57.592Z,8.098145
2023-03-26T03:47:07.032Z,8.078003
2023-03-26T03:48:15.738Z,8.078003
2023-03-26T03:49:25.447Z,8.088074
2023-03-26T03:50:35.739Z,8.118286
2023-03-26T03:51:41.849Z,8.098145
2023-03-26T03:52:51.566Z,8.098145
2023-03-26T03:54:00.283Z,8.088074
2023-03-26T03:55:10.003Z,8.078003
2023-03-26T03:56:19.717Z,8.078003
2023-03-26T03:57:28.406Z,8.027649
2023-03-26T03:58:38.137Z,8.007507
2023-03-26T03:59:48.359Z,8.007507
2023-03-26T04:00:57.552Z,7.977295
2023-03-26T04:02:07.305Z,7.977295
2023-03-26T04:03:17.060Z,7.967224
2023-03-26T04:04:27.729Z,7.947083
2023-03-26T04:05:37.438Z,7.947083
2023-03-26T04:06:46.181Z,7.977295
2023-03-26T04:07:54.866Z,7.967224
2023-03-26T04:09:04.594Z,7.967224
2023-03-26T04:10:13.391Z,7.977295
2023-03-26T04:11:21.157Z,7.997437
2023-03-26T04:12:30.907Z,7.977295
2023-03-26T04:13:39.602Z,7.997437
2023-03-26T04:14:49.412Z,7.977295
2023-03-26T04:15:58.366Z,7.977295
2023-03-26T04:17:07.800Z,7.977295
2023-03-26T04:18:15.521Z,7.967224
2023-03-26T04:19:25.212Z,7.937012
2023-03-26T04:20:35.023Z,7.947083
2023-03-26T04:21:42.753Z,7.947083
2023-03-26T04:22:52.442Z,7.947083
2023-03-26T04:24:02.166Z,7.906799
2023-03-26T04:25:09.899Z,7.926941
2023-03-26T04:26:19.600Z,7.926941
2023-03-26T04:27:28.300Z,7.937012
2023-03-26T04:28:38.066Z,7.947083
2023-03-26T04:29:47.832Z,7.977295
2023-03-26T04:30:56.762Z,7.977295
2023-03-26T04:32:06.503Z,7.997437
2023-03-26T04:33:16.196Z,7.977295
2023-03-26T04:34:24.977Z,7.977295
2023-03-26T04:35:34.723Z,7.967224
2023-03-26T04:36:43.424Z,7.967224
2023-03-26T04:37:52.129Z,7.967224
2023-03-26T04:39:01.870Z,7.937012
2023-03-26T04:40:10.604Z,7.937012
2023-03-26T04:41:20.319Z,7.937012
2023-03-26T04:42:29.034Z,7.947083
2023-03-26T04:43:38.784Z,7.997437
2023-03-26T04:44:48.606Z,8.027649
2023-03-26T04:45:58.269Z,8.057861
2023-03-26T04:47:07.033Z,8.057861
2023-03-26T04:48:16.742Z,8.078003
2023-03-26T04:49:25.489Z,8.118286
2023-03-26T04:50:35.228Z,8.128357
2023-03-26T04:51:45.026Z,8.158569
2023-03-26T04:52:54.768Z,8.188782
2023-03-26T04:54:04.466Z,8.229065
2023-03-26T04:55:12.270Z,8.269348
2023-03-26T04:56:22.006Z,8.269348
2023-03-26T04:57:31.789Z,8.299561
2023-03-26T04:58:40.514Z,8.299561
2023-03-26T04:59:51.285Z,8.309631
2023-03-26T05:01:01.150Z,8.329773
2023-03-26T05:02:10.728Z,8.339844
2023-03-26T05:03:20.576Z,8.370056
2023-03-26T05:04:29.363Z,8.380127
2023-03-26T05:05:38.050Z,8.440552
2023-03-26T05:06:47.793Z,8.380127
2023-03-26T05:07:55.484Z,8.380127
2023-03-26T05:09:05.224Z,8.370056
2023-03-26T05:10:12.904Z,8.410339
2023-03-26T05:11:21.663Z,8.410339
2023-03-26T05:12:31.444Z,8.380127
2023-03-26T05:13:40.130Z,8.370056
2023-03-26T05:14:48.814Z,8.410339
2023-03-26T05:15:58.616Z,8.42041
2023-03-26T05:17:07.311Z,8.42041
2023-03-26T05:18:17.094Z,8.460693
2023-03-26T05:19:25.829Z,8.460693
2023-03-26T05:20:34.716Z,8.480835
2023-03-26T05:21:44.403Z,8.480835
2023-03-26T05:22:53.140Z,8.480835
2023-03-26T05:24:02.851Z,8.490906
2023-03-26T05:25:12.604Z,8.511047
2023-03-26T05:26:22.384Z,8.521118
2023-03-26T05:27:32.144Z,8.521118
2023-03-26T05:28:41.895Z,8.511047
2023-03-26T05:29:51.640Z,8.531189
2023-03-26T05:31:01.450Z,8.561401
2023-03-26T05:32:11.182Z,8.601685
2023-03-26T05:33:21.062Z,8.561401
2023-03-26T05:34:30.694Z,8.601685
2023-03-26T05:35:40.513Z,8.581543
2023-03-26T05:36:50.165Z,8.601685
2023-03-26T05:37:58.916Z,8.631897
2023-03-26T05:39:06.673Z,8.641968
2023-03-26T05:40:16.393Z,8.67218
2023-03-26T05:41:25.141Z,8.662109
2023-03-26T05:42:34.932Z,8.702393
2023-03-26T05:43:44.774Z,8.692322
2023-03-26T05:44:53.479Z,8.692322
2023-03-26T05:46:03.274Z,8.712463
2023-03-26T05:47:12.936Z,8.732605
2023-03-26T05:48:20.618Z,8.762817
2023-03-26T05:49:30.334Z,8.782959
2023-03-26T05:50:40.068Z,8.813171
2023-03-26T05:51:50.253Z,8.823242
2023-03-26T05:52:59.843Z,8.853455
2023-03-26T05:54:07.528Z,8.893738
2023-03-26T05:55:17.226Z,8.883667
2023-03-26T05:56:25.985Z,8.873596
2023-03-26T05:57:34.732Z,8.873596
2023-03-26T05:58:44.458Z,8.843384
2023-03-26T05:59:54.206Z,8.843384
2023-03-26T06:01:03.992Z,8.823242
2023-03-26T06:02:13.685Z,8.823242
2023-03-26T06:03:22.480Z,8.843384
2023-03-26T06:04:32.407Z,8.823242
2023-03-26T06:05:41.878Z,8.782959
2023-03-26T06:06:49.672Z,8.742676
2023-03-26T06:07:59.387Z,8.813171
2023-03-26T06:09:08.148Z,8.782959
2023-03-26T06:10:18.442Z,8.79303
2023-03-26T06:11:27.559Z,8.79303
2023-03-26T06:12:37.314Z,8.813171
2023-03-26T06:13:47.029Z,8.79303
2023-03-26T06:14:56.734Z,8.813171
2023-03-26T06:16:06.561Z,8.79303
2023-03-26T06:17:17.275Z,8.843384
2023-03-26T06:18:27.121Z,8.823242
2023-03-26T06:19:36.834Z,8.823242
2023-03-26T06:20:46.541Z,8.873596
2023-03-26T06:21:55.379Z,8.873596
2023-03-26T06:23:05.129Z,8.873596
2023-03-26T06:24:14.824Z,8.893738
2023-03-26T06:25:24.545Z,8.873596
2023-03-26T06:26:33.330Z,8.853455
2023-03-26T06:27:43.105Z,8.913879
2023-03-26T06:28:52.929Z,8.913879
2023-03-26T06:30:02.727Z,8.944092
2023-03-26T06:31:12.477Z,8.994446
2023-03-26T06:32:21.283Z,8.954163
2023-03-26T06:33:30.988Z,8.954163
2023-03-26T06:34:40.734Z,8.913879
2023-03-26T06:35:50.596Z,8.913879
2023-03-26T06:37:00.278Z,8.893738
2023-03-26T06:38:08.065Z,8.913879
2023-03-26T06:39:17.839Z,8.944092
2023-03-26T06:40:26.553Z,9.024658
2023-03-26T06:41:34.362Z,9.075012
2023-03-26T06:43:06.432Z,9.125366
2023-03-26T06:43:54.949Z,9.205933
2023-03-26T06:45:04.681Z,9.256287
2023-03-26T06:46:13.467Z,9.306641
2023-03-26T06:47:22.157Z,9.306641
2023-03-26T06:48:31.871Z,9.336853
2023-03-26T06:49:40.621Z,9.367065
2023-03-26T06:50:49.300Z,9.437561
2023-03-26T06:51:59.036Z,9.407349
2023-03-26T06:53:06.772Z,9.42749
2023-03-26T06:54:15.447Z,9.508057
2023-03-26T06:55:25.176Z,9.538269
2023-03-26T06:56:33.981Z,9.538269
2023-03-26T06:57:43.712Z,9.54834
2023-03-26T06:58:52.489Z,9.558411
2023-03-26T07:00:01.264Z,9.588623
2023-03-26T07:01:11.037Z,9.638977
2023-03-26T07:02:18.776Z,9.67926
2023-03-26T07:03:28.547Z,9.608765
2023-03-26T07:04:38.383Z,9.477844
2023-03-26T07:05:48.180Z,9.508057
2023-03-26T07:06:57.855Z,9.558411
2023-03-26T07:08:06.573Z,9.608765
2023-03-26T07:09:15.246Z,9.608765
2023-03-26T07:10:24.916Z,9.67926
2023-03-26T07:11:33.656Z,9.689331
2023-03-26T07:12:43.418Z,9.729614
2023-03-26T07:13:53.132Z,9.689331
2023-03-26T07:15:01.901Z,9.618835
2023-03-26T07:16:11.635Z,9.608765
2023-03-26T07:17:21.298Z,9.649048
2023-03-26T07:18:30.150Z,9.659119
2023-03-26T07:19:39.837Z,9.618835
2023-03-26T07:20:48.561Z,9.477844
2023-03-26T07:21:58.332Z,9.508057
2023-03-26T07:23:08.030Z,9.387207
2023-03-26T07:24:15.876Z,9.276428
2023-03-26T07:25:25.600Z,9.246216
2023-03-26T07:26:33.329Z,9.226074
2023-03-26T07:27:41.076Z,9.226074
2023-03-26T07:29:03.574Z,9.286499
2023-03-26T07:30:01.550Z,9.356995
2023-03-26T07:31:11.255Z,9.356995
2023-03-26T07:32:21.110Z,9.336853
2023-03-26T07:33:28.735Z,9.306641
2023-03-26T07:34:38.470Z,9.276428
2023-03-26T07:35:48.153Z,9.185791
2023-03-26T07:36:57.806Z,9.075012
2023-03-26T07:38:07.544Z,9.095154
2023-03-26T07:39:17.250Z,8.974304
2023-03-26T07:40:26.988Z,8.873596
2023-03-26T07:41:36.894Z,8.823242
2023-03-26T07:42:44.371Z,8.732605
2023-03-26T07:43:54.049Z,8.712463
2023-03-26T07:45:02.749Z,8.742676
2023-03-26T07:46:12.496Z,8.813171
2023-03-26T07:47:22.131Z,8.813171
2023-03-26T07:48:31.874Z,8.853455
2023-03-26T07:49:41.669Z,8.913879
2023-03-26T07:50:51.393Z,8.944092
2023-03-26T07:52:00.121Z,8.954163
2023-03-26T07:53:09.868Z,8.893738
2023-03-26T07:54:19.470Z,8.893738
2023-03-26T07:55:27.173Z,8.893738
2023-03-26T07:56:36.937Z,8.883667
2023-03-26T07:57:46.559Z,8.853455
2023-03-26T07:58:54.285Z,8.823242
2023-03-26T08:00:03.958Z,8.823242
2023-03-26T08:01:12.613Z,8.873596
2023-03-26T08:02:20.312Z,8.944092
2023-03-26T08:03:30.100Z,8.92395
2023-03-26T08:04:38.914Z,8.944092
2023-03-26T08:05:47.375Z,8.974304
2023-03-26T08:06:57.071Z,9.034729
2023-03-26T08:08:06.759Z,9.0448
2023-03-26T08:09:16.482Z,9.004517
2023-03-26T08:10:26.128Z,8.92395
2023-03-26T08:11:35.797Z,8.92395
2023-03-26T08:12:45.492Z,8.893738
2023-03-26T08:13:54.203Z,8.873596
2023-03-26T08:15:03.940Z,8.813171
2023-03-26T08:16:13.676Z,8.873596
2023-03-26T08:17:23.377Z,8.954163
2023-03-26T08:18:33.063Z,9.075012
2023-03-26T08:19:42.718Z,9.095154
2023-03-26T08:20:51.391Z,9.105225
2023-03-26T08:22:01.068Z,9.135437
2023-03-26T08:23:08.738Z,9.185791
2023-03-26T08:24:17.452Z,9.205933
2023-03-26T08:25:27.201Z,9.256287
2023-03-26T08:26:37.857Z,9.105225
2023-03-26T08:27:47.573Z,9.095154
2023-03-26T08:28:56.275Z,9.075012
2023-03-26T08:30:04.959Z,9.105225
2023-03-26T08:31:14.671Z,9.135437
2023-03-26T08:32:24.367Z,9.095154
2023-03-26T08:33:34.649Z,9.034729
2023-03-26T08:34:43.739Z,9.034729
2023-03-26T08:35:52.546Z,9.004517
2023-03-26T08:37:02.193Z,9.075012
2023-03-26T08:38:11.896Z,9.075012
2023-03-26T08:39:19.647Z,9.064941
2023-03-26T08:40:29.387Z,9.17572
2023-03-26T08:41:38.051Z,9.155579
2023-03-26T08:42:47.749Z,9.185791
2023-03-26T08:43:57.429Z,9.256287
2023-03-26T08:45:06.092Z,9.276428
2023-03-26T08:46:15.933Z,9.306641
2023-03-26T08:47:24.496Z,9.306641
2023-03-26T08:48:33.173Z,9.306641
2023-03-26T08:49:42.965Z,9.407349
2023-03-26T08:50:51.671Z,9.336853
2023-03-26T08:52:01.445Z,9.286499
2023-03-26T08:53:11.126Z,9.306641
2023-03-26T08:54:18.840Z,9.306641
2023-03-26T08:55:28.600Z,9.407349
2023-03-26T08:56:37.372Z,9.477844
2023-03-26T08:57:45.962Z,9.558411
2023-03-26T08:58:55.698Z,9.497986
2023-03-26T09:00:05.415Z,9.387207
2023-03-26T09:01:14.099Z,9.397278
2023-03-26T09:02:23.766Z,9.367065
2023-03-26T09:03:33.464Z,9.306641
2023-03-26T09:04:43.146Z,9.316711
2023-03-26T09:05:52.838Z,9.316711
2023-03-26T09:07:01.536Z,9.306641
2023-03-26T09:08:11.278Z,9.316711
2023-03-26T09:09:19.489Z,9.407349
2023-03-26T09:10:27.692Z,9.437561
2023-03-26T09:11:37.375Z,9.538269
2023-03-26T09:12:46.072Z,9.54834
2023-03-26T09:13:55.692Z,9.467773
2023-03-26T09:15:05.467Z,9.42749
2023-03-26T09:16:13.146Z,9.397278
2023-03-26T09:17:22.836Z,9.336853
2023-03-26T09:18:31.544Z,9.256287
2023-03-26T09:19:41.372Z,9.205933
2023-03-26T09:20:51.066Z,9.205933
2023-03-26T09:21:58.772Z,9.246216
2023-03-26T09:23:08.445Z,9.256287
2023-03-26T09:24:17.115Z,9.226074
2023-03-26T09:25:25.791Z,9.276428
2023-03-26T09:26:35.574Z,9.216003
2023-03-26T09:27:44.231Z,9.306641
2023-03-26T09:28:51.936Z,9.306641
2023-03-26T09:30:01.635Z,9.356995
2023-03-26T09:31:10.330Z,9.356995
2023-03-26T09:32:19.988Z,9.397278
2023-03-26T09:33:29.731Z,9.437561
2023-03-26T09:34:37.428Z,9.497986
2023-03-26T09:35:47.114Z,9.477844
2023-03-26T09:36:55.759Z,9.437561
2023-03-26T09:38:05.465Z,9.407349
2023-03-26T09:39:15.155Z,9.316711
2023-03-26T09:40:22.876Z,9.367065
2023-03-26T09:41:32.553Z,9.316711
2023-03-26T09:42:42.252Z,9.256287
2023-03-26T09:43:52.022Z,9.185791
2023-03-26T09:45:00.762Z,9.135437
2023-03-26T09:46:09.421Z,9.155579
2023-03-26T09:47:19.110Z,9.135437
2023-03-26T09:48:28.791Z,9.105225
2023-03-26T09:49:36.522Z,9.095154
2023-03-26T09:50:46.266Z,9.095154
2023-03-26T09:51:55.998Z,9.034729
2023-03-26T09:53:04.756Z,8.954163
2023-03-26T09:54:14.435Z,8.883667
2023-03-26T09:55:24.156Z,8.893738
2023-03-26T09:56:32.858Z,8.974304
2023-03-26T09:57:42.564Z,9.034729
2023-03-26T09:58:51.165Z,9.125366
2023-03-26T10:00:00.867Z,9.105225
2023-03-26T10:01:09.616Z,9.155579
2023-03-26T10:02:19.280Z,9.004517
2023-03-26T10:03:30.060Z,8.994446
2023-03-26T10:04:39.771Z,8.974304
2023-03-26T10:05:48.553Z,8.92395
2023-03-26T10:06:58.264Z,9.004517
2023-03-26T10:08:07.005Z,8.974304
2023-03-26T10:09:15.688Z,8.944092
2023-03-26T10:10:25.412Z,9.034729
2023-03-26T10:11:35.139Z,9.105225
2023-03-26T10:12:44.880Z,9.155579
2023-03-26T10:13:55.542Z,9.246216
2023-03-26T10:15:04.284Z,9.276428
2023-03-26T10:16:14.050Z,9.286499
2023-03-26T10:17:23.693Z,9.246216
2023-03-26T10:18:32.504Z,9.256287
2023-03-26T10:19:42.105Z,9.246216
2023-03-26T10:20:49.882Z,9.125366
2023-03-26T10:21:58.542Z,9.125366
2023-03-26T10:23:08.229Z,9.155579
2023-03-26T10:24:15.971Z,9.17572
2023-03-26T10:25:24.676Z,9.155579
2023-03-26T10:26:34.390Z,9.17572
2023-03-26T10:27:45.165Z,9.185791
2023-03-26T10:28:54.856Z,9.216003
2023-03-26T10:30:04.646Z,9.216003
2023-03-26T10:31:13.380Z,9.256287
2023-03-26T10:32:23.208Z,9.306641
2023-03-26T10:33:32.884Z,9.356995
2023-03-26T10:34:42.652Z,9.387207
2023-03-26T10:35:52.434Z,9.356995
2023-03-26T10:37:00.119Z,9.336853
2023-03-26T10:38:09.844Z,9.276428
2023-03-26T10:39:36.461Z,9.306641
2023-03-26T10:40:29.329Z,9.256287
2023-03-26T10:41:39.071Z,9.246216
2023-03-26T10:42:48.751Z,9.276428
2023-03-26T10:44:07.724Z,9.246216
2023-03-26T10:45:09.194Z,9.256287
2023-03-26T10:46:16.942Z,9.226074
2023-03-26T10:47:27.699Z,9.246216
2023-03-26T10:48:37.361Z,9.226074
2023-03-26T10:49:46.093Z,9.205933
2023-03-26T10:50:56.011Z,9.216003
2023-03-26T10:52:05.542Z,9.185791
2023-03-26T10:53:15.241Z,9.216003
2023-03-26T10:54:25.004Z,9.095154
2023-03-26T10:55:33.719Z,9.105225
2023-03-26T10:56:43.433Z,9.034729
2023-03-26T10:57:52.130Z,8.974304
2023-03-26T10:59:00.808Z,9.004517
2023-03-26T11:00:10.502Z,9.034729
2023-03-26T11:01:19.217Z,9.024658
2023-03-26T11:02:29.528Z,9.155579
2023-03-26T11:03:38.591Z,9.105225
2023-03-26T11:04:48.239Z,9.135437
2023-03-26T11:05:57.956Z,9.125366
2023-03-26T11:07:08.632Z,9.034729
2023-03-26T11:08:17.428Z,9.004517
2023-03-26T11:09:28.122Z,9.004517
2023-03-26T11:10:37.892Z,8.994446
2023-03-26T11:11:47.550Z,9.064941
2023-03-26T11:12:57.292Z,9.064941
2023-03-26T11:14:06.969Z,9.024658
2023-03-26T11:15:17.666Z,8.994446
2023-03-26T11:16:26.391Z,9.0448
2023-03-26T11:17:39.281Z,9.0448
2023-03-26T11:18:45.895Z,9.095154
2023-03-26T11:19:53.580Z,9.075012
2023-03-26T11:21:18.318Z,9.095154
2023-03-26T11:22:13.945Z,9.205933
2023-03-26T11:23:22.637Z,9.205933
2023-03-26T11:24:32.327Z,9.125366
2023-03-26T11:25:42.022Z,9.17572
2023-03-26T11:26:50.714Z,9.205933
2023-03-26T11:28:01.445Z,9.095154
2023-03-26T11:29:31.159Z,9.17572
2023-03-26T11:30:22.811Z,9.185791
2023-03-26T11:31:32.573Z,9.185791
2023-03-26T11:32:41.286Z,9.216003
2023-03-26T11:33:50.982Z,9.276428
2023-03-26T11:35:00.625Z,9.205933
2023-03-26T11:36:09.334Z,9.155579
2023-03-26T11:37:19.001Z,9.17572
2023-03-26T11:38:28.713Z,9.185791
2023-03-26T11:39:38.408Z,9.17572
2023-03-26T11:40:47.117Z,9.17572
2023-03-26T11:41:55.885Z,9.205933
2023-03-26T11:43:05.568Z,9.17572
2023-03-26T11:44:13.302Z,9.075012
2023-03-26T11:45:23.005Z,9.034729
2023-03-26T11:46:33.773Z,8.974304
2023-03-26T11:47:41.411Z,8.823242
2023-03-26T11:48:51.071Z,8.813171
2023-03-26T11:49:59.804Z,8.732605
2023-03-26T11:51:07.493Z,8.79303
2023-03-26T11:52:17.157Z,8.67218
2023-03-26T11:53:26.860Z,8.692322
2023-03-26T11:54:36.528Z,8.67218
2023-03-26T11:55:46.287Z,8.712463
2023-03-26T11:57:04.325Z,8.692322
2023-03-26T11:58:05.644Z,8.631897
2023-03-26T11:59:15.885Z,8.561401
2023-03-26T12:00:25.600Z,8.531189
2023-03-26T12:01:35.413Z,8.511047
2023-03-26T12:02:45.141Z,8.521118
2023-03-26T12:03:53.828Z,8.561401
2023-03-26T12:05:03.540Z,8.581543
2023-03-26T12:06:13.246Z,8.601685
2023-03-26T12:07:22.959Z,8.662109
2023-03-26T12:08:32.709Z,8.631897
2023-03-26T12:09:42.445Z,8.732605
2023-03-26T12:10:52.207Z,8.79303
2023-03-26T12:12:01.935Z,8.79303
2023-03-26T12:13:09.633Z,8.823242
2023-03-26T12:14:19.393Z,8.883667
2023-03-26T12:15:28.081Z,9.004517
2023-03-26T12:16:36.876Z,9.064941
2023-03-26T12:17:46.589Z,9.075012
2023-03-26T12:18:56.287Z,9.306641
2023-03-26T12:20:03.983Z,9.397278
2023-03-26T12:21:13.746Z,9.618835
2023-03-26T12:22:21.397Z,9.67926
2023-03-26T12:23:31.170Z,9.820251
2023-03-26T12:24:40.864Z,9.981384
2023-03-26T12:25:48.553Z,9.991455
2023-03-26T12:26:58.258Z,10.021667
2023-03-26T12:28:07.002Z,10.152588
2023-03-26T12:29:15.690Z,10.263367
2023-03-26T12:30:25.356Z,10.253296
2023-03-26T12:31:33.117Z,10.152588
2023-03-26T12:32:46.060Z,10.132446
2023-03-26T12:33:53.455Z,10.092163
2023-03-26T12:35:02.171Z,10.132446
2023-03-26T12:36:11.858Z,10.092163
2023-03-26T12:37:19.593Z,10.021667
2023-03-26T12:38:29.228Z,9.991455
2023-03-26T12:40:08.491Z,9.991455
2023-03-26T12:40:49.631Z,9.991455
2023-03-26T12:42:26.201Z,10.152588
2023-03-26T12:44:45.845Z,10.253296
2023-03-26T12:44:51.916Z,10.202942
2023-03-26T12:45:31.282Z,10.223083
2023-03-26T12:47:26.521Z,10.192871
2023-03-26T12:47:56.819Z,10.162659
2023-03-26T12:49:01.347Z,10.192871
2023-03-26T12:50:10.031Z,10.202942
2023-03-26T12:51:19.756Z,10.233154
2023-03-26T12:52:28.549Z,10.30365
2023-03-26T12:53:37.236Z,10.384216
2023-03-26T12:54:47.004Z,10.384216
2023-03-26T12:55:56.689Z,10.404358
2023-03-26T12:57:11.594Z,10.484924
2023-03-26T12:58:16.075Z,10.414429
2023-03-26T12:59:25.770Z,10.374146
2023-03-26T13:00:35.498Z,10.343933
2023-03-26T13:01:44.274Z,10.313721
2023-03-26T13:02:51.988Z,10.354004
2023-03-26T13:04:01.609Z,10.374146
2023-03-26T13:05:11.255Z,10.444641
2023-03-26T13:06:19.943Z,10.444641
2023-03-26T13:07:29.672Z,10.4245
2023-03-26T13:08:37.481Z,10.343933
2023-03-26T13:09:47.189Z,10.384216
2023-03-26T13:10:56.416Z,10.384216
2023-03-26T13:12:04.844Z,10.384216
2023-03-26T13:13:15.561Z,10.384216
2023-03-26T13:14:24.333Z,10.354004
2023-03-26T13:15:34.081Z,10.354004
2023-03-26T13:16:43.853Z,10.404358
2023-03-26T13:17:52.959Z,10.384216
2023-03-26T13:19:02.659Z,10.404358
2023-03-26T13:20:11.419Z,10.384216
2023-03-26T13:21:20.126Z,10.4245
2023-03-26T13:22:29.821Z,10.464783
2023-03-26T13:23:38.531Z,10.444641
2023-03-26T13:24:47.296Z,10.444641
2023-03-26T13:25:56.966Z,10.525208
2023-03-26T13:27:06.711Z,10.535278
2023-03-26T13:28:16.506Z,10.525208
2023-03-26T13:29:26.155Z,10.494995
2023-03-26T13:30:34.940Z,10.494995
2023-03-26T13:31:44.636Z,10.535278
2023-03-26T13:32:53.379Z,10.525208
2023-03-26T13:34:02.113Z,10.585632